Time,TemperatureF,DewpointF,PressureIn,WindDirection,WindDirectionDegrees,WindSpeedMPH,WindSpeedGustMPH,Humidity,HourlyPrecipIn,Conditions,Clouds,dailyrainin,SoftwareType,DateUTC
2013-11-18 00:04:00,75.6,-31.5,29.65,SSW,202,2.2,-999.0,1,-99.99,,,0.00,Acu-Link.com,2013-11-18 06:04:00,
2013-11-18 00:19:00,75.6,-31.5,29.66,WSW,247,2.2,-999.0,1,-99.99,,,0.00,Acu-Link.com,2013-11-18 06:19:00,
2013-11-18 00:35:00,75.6,-31.5,29.66,WSW,247,3.7,-999.0,1,-99.99,,,0.00,Acu-Link.com,2013-11-18 06:35:00,
2013-11-18 00:50:00,75.6,-31.5,29.66,WSW,247,0.0,-999.0,1,-99.99,,,0.00,Acu-Link.com,2013-11-18 06:50:00,
2013-11-18 01:05:00,75.6,-31.5,29.66,SW,225,0.0,-999.0,1,-99.99,,,0.00,Acu-Link.com,2013-11-18 07:05:00,
2013-11-18 01:21:00,75.6,-31.5,29.67,West,270,1.7,-999.0,1,-99.99,,,0.00,Acu-Link.com,2013-11-18 07:21:00,
2013-11-18 01:36:00,75.6,-31.5,29.66,West,270,1.7,-999.0,1,-99.99,,,0.00,Acu-Link.com,2013-11-18 07:36:00,
2013-11-18 01:51:00,75.6,-31.5,29.67,WSW,247,0.0,-999.0,1,-99.99,,,0.00,Acu-Link.com,2013-11-18 07:51:00,
2013-11-18 02:06:00,75.6,-31.5,29.66,SSW,202,0.0,-999.0,1,-99.99,,,0.00,Acu-Link.com,2013-11-18 08:06:00,
2013-11-18 02:22:00,75.4,-31.6,29.66,WSW,247,0.0,-999.0,1,-99.99,,,0.00,Acu-Link.com,2013-11-18 08:22:00,
2013-11-18 02:37:00,75.4,-31.6,29.67,West,270,0.0,-999.0,1,-99.99,,,0.00,Acu-Link.com,2013-11-18 08:37:00,
2013-11-18 02:52:00,75.2,-31.7,29.67,West,270,0.0,-999.0,1,-99.99,,,0.00,Acu-Link.com,2013-11-18 08:52:00,
2013-11-18 03:08:00,75.2,-31.7,29.67,West,270,0.0,-999.0,1,-99.99,,,0.00,Acu-Link.com,2013-11-18 09:08:00,
2013-11-18 03:23:00,75.0,-31.8,29.66,SW,225,0.0,-999.0,1,-99.99,,,0.00,Acu-Link.com,2013-11-18 09:23:00,
2013-11-18 03:38:00,74.8,-31.9,29.67,WSW,247,0.0,-999.0,1,-99.99,,,0.00,Acu-Link.com,2013-11-18 09:38:00,
2013-11-18 03:54:00,74.8,-31.9,29.67,West,270,0.0,-999.0,1,-99.99,,,0.00,Acu-Link.com,2013-11-18 09:54:00,
2013-11-18 04:09:00,75.2,-31.7,29.66,SSW,202,0.0,-999.0,1,-99.99,,,0.00,Acu-Link.com,2013-11-18 10:09:00,
2013-11-18 04:24:00,75.4,-31.6,29.66,NNE,22,0.0,-999.0,1,-99.99,,,0.00,Acu-Link.com,2013-11-18 10:24:00,
2013-11-18 04:39:00,75.2,-31.7,29.66,East,90,0.0,-999.0,1,-99.99,,,0.00,Acu-Link.com,2013-11-18 10:39:00,
2013-11-18 04:55:00,75.0,-31.8,29.67,SSE,157,0.0,-999.0,1,-99.99,,,0.00,Acu-Link.com,2013-11-18 10:55:00,
2013-11-18 05:10:00,74.8,-31.9,29.66,ENE,67,0.0,-999.0,1,-99.99,,,0.00,Acu-Link.com,2013-11-18 11:10:00,
2013-11-18 05:25:00,74.7,-32.0,29.66,NNW,337,0.0,-999.0,1,-99.99,,,0.00,Acu-Link.com,2013-11-18 11:25:00,
2013-11-18 05:40:00,74.7,-32.0,29.66,West,270,0.0,-999.0,1,-99.99,,,0.00,Acu-Link.com,2013-11-18 11:40:00,
2013-11-18 05:55:00,70.0,-34.8,29.69,North,0,9.9,-999.0,1,-99.99,,,0.00,Acu-Link.com,2013-11-18 11:55:00,
2013-11-18 06:11:00,66.0,-37.2,29.70,North,0,7.3,-999.0,1,-99.99,,,0.00,Acu-Link.com,2013-11-18 12:11:00,
2013-11-18 06:26:00,65.5,-37.5,29.71,NNE,22,8.9,-999.0,1,-99.99,,,0.00,Acu-Link.com,2013-11-18 12:26:00,
2013-11-18 06:41:00,65.5,-37.5,29.71,NE,45,4.7,-999.0,1,-99.99,,,0.00,Acu-Link.com,2013-11-18 12:41:00,
2013-11-18 06:56:00,65.5,-37.5,29.72,NE,45,8.9,-999.0,1,-99.99,,,0.00,Acu-Link.com,2013-11-18 12:56:00,
2013-11-18 07:11:00,65.8,-37.3,29.73,NNE,22,6.8,-999.0,1,-99.99,,,0.00,Acu-Link.com,2013-11-18 13:11:00,
2013-11-18 07:27:00,66.0,-37.2,29.73,ENE,67,5.8,-999.0,1,-99.99,,,0.00,Acu-Link.com,2013-11-18 13:27:00,
2013-11-18 07:42:00,66.6,-36.9,29.74,NNE,22,6.8,-999.0,1,-99.99,,,0.00,Acu-Link.com,2013-11-18 13:42:00,
2013-11-18 07:57:00,66.7,-36.8,29.75,ENE,67,3.7,-999.0,1,-99.99,,,0.00,Acu-Link.com,2013-11-18 13:57:00,
2013-11-18 08:12:00,66.9,-36.7,29.75,NNE,22,4.7,-999.0,1,-99.99,,,0.00,Acu-Link.com,2013-11-18 14:12:00,
2013-11-18 08:27:00,67.1,-36.6,29.76,NE,45,4.7,-999.0,1,-99.99,,,0.00,Acu-Link.com,2013-11-18 14:27:00,
2013-11-18 08:42:00,66.9,-36.7,29.77,NNE,22,6.3,-999.0,1,-99.99,,,0.00,Acu-Link.com,2013-11-18 14:42:00,
2013-11-18 08:58:00,67.3,-36.4,29.78,NNE,22,6.3,-999.0,1,-99.99,,,0.00,Acu-Link.com,2013-11-18 14:58:00,
2013-11-18 09:13:00,67.5,-36.3,29.78,ENE,67,4.2,-999.0,1,-99.99,,,0.00,Acu-Link.com,2013-11-18 15:13:00,
2013-11-18 09:28:00,67.6,-36.3,29.79,ENE,67,3.7,-999.0,1,-99.99,,,0.00,Acu-Link.com,2013-11-18 15:28:00,
2013-11-18 09:43:00,69.1,-35.4,29.78,NE,45,2.7,-999.0,1,-99.99,,,0.00,Acu-Link.com,2013-11-18 15:43:00,
2013-11-18 09:58:00,69.6,-35.1,29.79,ENE,67,4.2,-999.0,1,-99.99,,,0.00,Acu-Link.com,2013-11-18 15:58:00,
2013-11-18 10:13:00,70.0,-34.8,29.79,East,90,3.7,-999.0,1,-99.99,,,0.00,Acu-Link.com,2013-11-18 16:13:00,
2013-11-18 10:28:00,71.4,-34.0,29.79,NNE,22,5.8,-999.0,1,-99.99,,,0.00,Acu-Link.com,2013-11-18 16:28:00,
2013-11-18 10:43:00,70.3,-34.6,29.78,NE,45,8.9,-999.0,1,-99.99,,,0.00,Acu-Link.com,2013-11-18 16:43:00,
2013-11-18 10:59:00,70.7,-34.4,29.77,NNE,22,4.7,-999.0,1,-99.99,,,0.00,Acu-Link.com,2013-11-18 16:59:00,
2013-11-18 11:14:00,70.9,-34.3,29.77,NNE,22,6.3,-999.0,1,-99.99,,,0.00,Acu-Link.com,2013-11-18 17:14:00,
2013-11-18 11:29:00,71.6,-33.9,29.77,NNE,22,3.7,-999.0,1,-99.99,,,0.00,Acu-Link.com,2013-11-18 17:29:00,
2013-11-18 11:45:00,72.1,-33.6,29.75,NE,45,9.9,-999.0,1,-99.99,,,0.00,Acu-Link.com,2013-11-18 17:45:00,
2013-11-18 12:00:00,73.8,-32.5,29.75,NNE,22,6.8,-999.0,1,-99.99,,,0.00,Acu-Link.com,2013-11-18 18:00:00,
2013-11-18 12:15:00,74.3,-32.2,29.75,NNE,22,6.8,-999.0,1,-99.99,,,0.00,Acu-Link.com,2013-11-18 18:15:00,
2013-11-18 12:30:00,75.0,-31.8,29.74,East,90,6.8,-999.0,1,-99.99,,,0.00,Acu-Link.com,2013-11-18 18:30:00,
2013-11-18 12:45:00,75.0,-31.8,29.75,NE,45,6.8,-999.0,1,-99.99,,,0.00,Acu-Link.com,2013-11-18 18:45:00,
2013-11-18 13:00:00,76.1,-31.2,29.74,ENE,67,6.3,-999.0,1,-99.99,,,0.00,Acu-Link.com,2013-11-18 19:00:00,
2013-11-18 13:15:00,76.6,-30.9,29.73,NE,45,3.2,-999.0,1,-99.99,,,0.00,Acu-Link.com,2013-11-18 19:15:00,
2013-11-18 13:31:00,77.2,-30.5,29.73,NNE,22,4.2,-999.0,1,-99.99,,,0.00,Acu-Link.com,2013-11-18 19:31:00,
2013-11-18 13:46:00,78.8,-29.6,29.71,NE,45,6.3,-999.0,1,-99.99,,,0.00,Acu-Link.com,2013-11-18 19:46:00,
2013-11-18 14:01:00,78.8,-29.6,29.73,NE,45,5.3,-999.0,1,-99.99,,,0.00,Acu-Link.com,2013-11-18 20:01:00,
2013-11-18 14:16:00,80.2,-28.7,29.72,NE,45,4.2,-999.0,1,-99.99,,,0.00,Acu-Link.com,2013-11-18 20:16:00,
2013-11-18 14:31:00,80.1,-28.8,29.71,NE,45,6.3,-999.0,1,-99.99,,,0.00,Acu-Link.com,2013-11-18 20:31:00,
2013-11-18 14:46:00,79.0,-29.4,29.72,NE,45,4.2,-999.0,1,-99.99,,,0.00,Acu-Link.com,2013-11-18 20:46:00,
2013-11-18 15:01:00,78.8,-29.6,29.71,NNE,22,7.8,-999.0,1,-99.99,,,0.00,Acu-Link.com,2013-11-18 21:01:00,
2013-11-18 15:17:00,77.4,-30.4,29.71,NNE,22,6.8,-999.0,1,-99.99,,,0.00,Acu-Link.com,2013-11-18 21:17:00,
2013-11-18 15:32:00,76.1,-31.2,29.72,NE,45,6.8,-999.0,1,-99.99,,,0.00,Acu-Link.com,2013-11-18 21:32:00,
2013-11-18 15:47:00,76.6,-30.9,29.73,North,0,3.2,-999.0,1,-99.99,,,0.00,Acu-Link.com,2013-11-18 21:47:00,
2013-11-18 16:02:00,77.0,-30.6,29.74,NNE,22,7.3,-999.0,1,-99.99,,,0.00,Acu-Link.com,2013-11-18 22:02:00,
2013-11-18 16:18:00,74.7,-32.0,29.75,NNE,22,7.8,-999.0,1,-99.99,,,0.00,Acu-Link.com,2013-11-18 22:18:00,
2013-11-18 16:33:00,72.9,-33.1,29.75,NNW,337,7.8,-999.0,1,-99.99,,,0.00,Acu-Link.com,2013-11-18 22:33:00,
2013-11-18 16:48:00,72.1,-33.6,29.75,NNE,22,4.2,-999.0,1,-99.99,,,0.00,Acu-Link.com,2013-11-18 22:48:00,
2013-11-18 17:04:00,70.9,-34.3,29.75,North,0,3.7,-999.0,1,-99.99,,,0.00,Acu-Link.com,2013-11-18 23:04:00,
2013-11-18 17:19:00,70.3,-34.6,29.76,NNW,337,7.8,-999.0,1,-99.99,,,0.00,Acu-Link.com,2013-11-18 23:19:00,
2013-11-18 17:34:00,69.4,-35.2,29.75,NNW,337,4.7,-999.0,1,-99.99,,,0.00,Acu-Link.com,2013-11-18 23:34:00,
2013-11-18 17:49:00,68.5,-35.7,29.76,NNW,337,2.7,-999.0,1,-99.99,,,0.00,Acu-Link.com,2013-11-18 23:49:00,
2013-11-18 18:05:00,67.8,-36.1,29.78,NNE,22,3.7,-999.0,1,-99.99,,,0.00,Acu-Link.com,2013-11-19 00:05:00,
2013-11-18 18:20:00,67.1,-36.6,29.77,NNW,337,3.7,-999.0,1,-99.99,,,0.00,Acu-Link.com,2013-11-19 00:20:00,
2013-11-18 18:35:00,66.2,-37.1,29.79,North,0,4.7,-999.0,1,-99.99,,,0.00,Acu-Link.com,2013-11-19 00:35:00,
2013-11-18 18:50:00,65.7,-37.4,29.79,North,0,4.2,-999.0,1,-99.99,,,0.00,Acu-Link.com,2013-11-19 00:50:00,
2013-11-18 19:05:00,65.5,-37.5,29.79,ENE,67,5.8,-999.0,1,-99.99,,,0.00,Acu-Link.com,2013-11-19 01:05:00,
2013-11-18 19:20:00,64.9,-37.9,29.81,NNE,22,6.3,-999.0,1,-99.99,,,0.00,Acu-Link.com,2013-11-19 01:20:00,
2013-11-18 19:36:00,64.4,-38.2,29.81,NNE,22,4.2,-999.0,1,-99.99,,,0.00,Acu-Link.com,2013-11-19 01:36:00,
2013-11-18 19:51:00,63.9,-38.5,29.81,North,0,7.8,-999.0,1,-99.99,,,0.00,Acu-Link.com,2013-11-19 01:51:00,
2013-11-18 20:06:00,63.0,-39.0,29.81,NNE,22,5.8,-999.0,1,-99.99,,,0.00,Acu-Link.com,2013-11-19 02:06:00,
2013-11-18 20:21:00,62.2,-39.5,29.81,North,0,9.4,-999.0,1,-99.99,,,0.00,Acu-Link.com,2013-11-19 02:21:00,
2013-11-18 20:37:00,61.3,-40.1,29.81,NNE,22,5.8,-999.0,1,-99.99,,,0.00,Acu-Link.com,2013-11-19 02:37:00,
2013-11-18 20:52:00,61.0,-40.2,29.81,NNW,337,4.2,-999.0,1,-99.99,,,0.00,Acu-Link.com,2013-11-19 02:52:00,
2013-11-18 21:07:00,60.4,-40.6,29.81,NE,45,5.8,-999.0,1,-99.99,,,0.00,Acu-Link.com,2013-11-19 03:07:00,
2013-11-18 21:23:00,59.7,-41.0,29.81,NE,45,3.7,-999.0,1,-99.99,,,0.00,Acu-Link.com,2013-11-19 03:23:00,
2013-11-18 21:38:00,59.4,-41.2,29.82,NNW,337,4.2,-999.0,1,-99.99,,,0.00,Acu-Link.com,2013-11-19 03:38:00,
2013-11-18 21:53:00,59.0,-41.5,29.82,NNW,337,4.7,-999.0,1,-99.99,,,0.00,Acu-Link.com,2013-11-19 03:53:00,
2013-11-18 22:08:00,58.5,-41.8,29.82,North,0,6.8,-999.0,1,-99.99,,,0.00,Acu-Link.com,2013-11-19 04:08:00,
2013-11-18 22:24:00,57.9,-42.1,29.83,North,0,4.2,-999.0,1,-99.99,,,0.00,Acu-Link.com,2013-11-19 04:24:00,
2013-11-18 22:39:00,57.7,-42.3,29.83,North,0,5.8,-999.0,1,-99.99,,,0.00,Acu-Link.com,2013-11-19 04:39:00,
2013-11-18 22:54:00,57.6,-42.3,29.82,North,0,4.2,-999.0,1,-99.99,,,0.00,Acu-Link.com,2013-11-19 04:54:00,
2013-11-18 23:10:00,57.4,-42.4,29.83,NNE,22,4.7,-999.0,1,-99.99,,,0.00,Acu-Link.com,2013-11-19 05:10:00,
2013-11-18 23:25:00,56.7,-42.9,29.83,NE,45,4.2,-999.0,1,-99.99,,,0.00,Acu-Link.com,2013-11-19 05:25:00,
2013-11-18 23:40:00,56.5,-43.0,29.83,NNE,22,3.2,-999.0,1,-99.99,,,0.00,Acu-Link.com,2013-11-19 05:40:00,
2013-11-18 23:56:00,56.1,-43.2,29.83,North,0,5.3,-999.0,1,-99.99,,,0.00,Acu-Link.com,2013-11-19 05:56:00,